aviador You're here:

YMHB Decoded Metar

HOBART in AUSTRALIA
Report Time2017-12-11 00:00:00
UTC Time2017-12-11 00:30:11
Flight Rules vfr VFR
Wind320° at 06 kt
W.Decomp.*RWY 30: 6.0 kt HW 0.4 kt RCW
W.Rank320° ranks 3
Current wind is below 320° avg. (9.6)
Visibility9999 m
Phenomena:N/A
Clouds:Few 030 Hf
Broken 150 Hf
Expected CloudBase > 3,600 ft AGL from Temp-Dew spread
Ceiling15,000 ft
Temp18°C (ISA +3)
Dew Point09°C (56% RH)
AAT15.6°C
QNH1017 hPa
Density Alt482 ft
Elevation89 ft
Report Wrong Elevation
Raw Report
YMHB 110000Z 32006KT 9999 FEW030 BKN150 18/09 Q1017
RF00.0/000.0=

Extra information for YMHB:More info

Metar Taf Metar & Taf Last 4 Metars F.Rules Stats Wind Profile Meteogram Temp Stats Airport Information Weather charts Add Link Nearby VenuesMetar ALERT Operation Metar Decoded Social comments